Time;durP1;ratioP1;P1;durP2;ratioP2;P2;SDS_P1;SDS_P2;PMS_P1;PMS_P2;Temp;Humidity;BMP_temperature;BMP_pressure;BME280_temperature;BME280_humidity;BME280_pressure;Samples;Min_cycle;Max_cycle;Signal;HPM_P1;HPM_P2
2021/06/12 00:00:55;;;;;;;5.88;2.80;;;;;;;17.98;66.71;99708.25;5014200;28;20041;-62
2021/06/12 00:03:20;;;;;;;6.40;3.30;;;;;;;17.98;66.89;99705.56;5015885;28;20033;-62
2021/06/12 00:05:46;;;;;;;7.15;3.38;;;;;;;17.80;67.53;99701.59;5015116;28;20493;-62
2021/06/12 00:08:11;;;;;;;9.50;3.30;;;;;;;17.78;67.99;99695.59;5015939;28;20033;-62
2021/06/12 00:10:37;;;;;;;6.35;3.17;;;;;;;17.67;67.97;99694.00;5013964;28;20488;-62
2021/06/12 00:13:03;;;;;;;5.72;3.30;;;;;;;17.67;67.88;99694.84;5015236;28;20041;-62
2021/06/12 00:15:29;;;;;;;5.22;3.33;;;;;;;17.73;68.32;99698.31;5015180;28;20033;-62
2021/06/12 00:17:55;;;;;;;7.57;3.30;;;;;;;17.75;67.66;99698.06;5015669;28;20030;-62
2021/06/12 00:20:23;;;;;;;4.93;3.20;;;;;;;17.76;67.93;99699.66;5014428;28;20108;-62
2021/06/12 00:22:48;;;;;;;8.15;3.42;;;;;;;17.67;68.24;99688.56;5013708;28;20061;-62
2021/06/12 00:25:15;;;;;;;5.75;3.40;;;;;;;17.69;68.28;99694.53;5015206;28;20041;-62
2021/06/12 00:27:40;;;;;;;7.40;3.65;;;;;;;17.67;68.00;99685.88;5015253;28;20029;-62
2021/06/12 00:30:09;;;;;;;7.95;4.00;;;;;;;17.63;68.47;99687.53;5013610;28;20021;-61
2021/06/12 00:32:35;;;;;;;7.60;3.90;;;;;;;17.63;68.76;99684.81;5015121;28;20376;-62
2021/06/12 00:35:00;;;;;;;7.15;3.53;;;;;;;17.63;68.61;99687.53;5015146;28;20033;-63
2021/06/12 00:37:26;;;;;;;10.32;3.92;;;;;;;17.64;68.85;99689.13;5014798;28;20053;-62
2021/06/12 00:39:51;;;;;;;10.30;3.97;;;;;;;17.61;68.56;99697.84;5013762;28;20026;-62
2021/06/12 00:42:16;;;;;;;8.13;3.80;;;;;;;17.55;69.49;99683.50;5014764;28;20030;-62
2021/06/12 00:44:42;;;;;;;7.32;4.03;;;;;;;17.60;69.17;99685.38;5013785;28;20427;-62
2021/06/12 00:47:07;;;;;;;10.95;4.35;;;;;;;17.59;69.20;99675.63;5014749;28;20046;-62
2021/06/12 00:49:33;;;;;;;10.30;4.53;;;;;;;17.63;69.29;99669.38;5013660;28;20483;-62
2021/06/12 00:51:58;;;;;;;7.30;4.07;;;;;;;17.37;70.33;99668.69;5014427;28;20045;-62
2021/06/12 00:54:24;;;;;;;10.98;4.95;;;;;;;17.33;70.18;99667.59;5014767;28;20084;-62
2021/06/12 00:56:49;;;;;;;9.63;4.30;;;;;;;17.30;70.39;99670.03;5014349;28;20065;-62
2021/06/12 00:59:15;;;;;;;7.40;4.22;;;;;;;17.28;70.50;99677.63;5013310;28;20070;-62
2021/06/12 01:01:40;;;;;;;7.25;4.35;;;;;;;17.25;70.61;99668.16;5013041;28;20033;-62
2021/06/12 01:04:06;;;;;;;8.60;4.50;;;;;;;17.31;70.46;99664.34;5014652;28;20464;-62
2021/06/12 01:06:31;;;;;;;9.57;4.90;;;;;;;17.29;70.55;99669.22;5012891;28;20395;-62
2021/06/12 01:08:57;;;;;;;13.00;5.13;;;;;;;17.27;70.69;99657.84;5014810;28;20030;-62
2021/06/12 01:11:22;;;;;;;11.18;5.25;;;;;;;17.24;71.19;99647.56;5014185;28;20476;-62
2021/06/12 01:13:54;;;;;;;9.70;4.90;;;;;;;17.09;71.97;99647.63;5013310;28;20460;-62
2021/06/12 01:16:31;;;;;;;9.20;4.53;;;;;;;16.98;71.93;99650.34;5014199;28;20216;-62
2021/06/12 01:18:57;;;;;;;11.20;5.85;;;;;;;17.01;72.44;99649.81;5013235;28;20548;-62
2021/06/12 01:21:40;;;;;;;11.02;5.70;;;;;;;17.09;71.97;99661.16;4996744;28;20050;-62
2021/06/12 01:24:16;;;;;;;10.02;5.38;;;;;;;16.93;72.25;99655.78;5013306;28;20391;-62
2021/06/12 01:27:11;;;;;;;8.25;5.03;;;;;;;16.83;72.70;99658.50;5013888;28;20065;-62
2021/06/12 01:29:55;;;;;;;11.07;5.93;;;;;;;16.81;73.36;99650.66;4981747;28;20018;-62
2021/06/12 01:32:20;;;;;;;13.40;5.90;;;;;;;16.80;73.16;99653.66;5013622;28;20046;-62
2021/06/12 01:34:46;;;;;;;10.35;4.82;;;;;;;16.56;73.53;99659.56;5014263;28;20359;-62
2021/06/12 01:37:12;;;;;;;11.32;5.60;;;;;;;16.58;74.76;99649.31;4996070;28;20590;-62
2021/06/12 01:39:38;;;;;;;12.15;5.43;;;;;;;16.61;73.90;99648.75;4996422;28;20013;-62
2021/06/12 01:42:05;;;;;;;9.18;5.40;;;;;;;16.64;73.91;99638.47;5013508;28;20038;-62
2021/06/12 01:44:31;;;;;;;13.15;5.72;;;;;;;16.65;73.61;99648.19;5012892;28;20072;-62
2021/06/12 01:46:56;;;;;;;15.32;5.50;;;;;;;16.59;74.03;99642.78;5012299;28;20419;-62
2021/06/12 01:49:22;;;;;;;11.07;5.22;;;;;;;16.56;74.00;99653.38;5012741;28;20033;-62
2021/06/12 01:51:47;;;;;;;10.70;6.15;;;;;;;16.50;74.82;99652.56;4995799;28;20030;-62
2021/06/12 01:54:14;;;;;;;11.65;5.47;;;;;;;16.54;74.23;99659.03;5012526;28;20018;-62
2021/06/12 01:56:40;;;;;;;11.93;6.05;;;;;;;16.54;74.45;99648.22;4995968;28;20030;-62
2021/06/12 01:59:06;;;;;;;12.85;5.10;;;;;;;16.49;74.42;99659.03;5012322;28;20049;-62
2021/06/12 02:01:31;;;;;;;9.18;4.68;;;;;;;16.33;74.74;99662.84;5013235;28;20034;-62
2021/06/12 02:03:57;;;;;;;12.10;5.15;;;;;;;16.34;74.52;99661.75;5012541;28;20076;-62
2021/06/12 02:06:22;;;;;;;9.52;4.28;;;;;;;16.27;74.60;99667.41;5011786;28;20038;-62
2021/06/12 02:08:48;;;;;;;11.82;5.65;;;;;;;16.21;76.03;99663.09;4995560;28;20026;-62
2021/06/12 02:11:15;;;;;;;15.13;6.57;;;;;;;16.26;75.58;99667.69;4995706;28;20038;-62
2021/06/12 02:13:41;;;;;;;10.35;4.78;;;;;;;16.05;76.31;99662.28;4996346;28;20032;-62
2021/06/12 02:16:06;;;;;;;10.93;5.65;;;;;;;16.04;76.83;99662.53;5012783;28;20038;-62
2021/06/12 02:18:32;;;;;;;10.32;4.72;;;;;;;16.04;75.92;99663.31;5012309;28;20029;-62
2021/06/12 02:20:57;;;;;;;9.52;4.80;;;;;;;15.92;76.41;99663.56;5011812;28;20484;-62
2021/06/12 02:23:24;;;;;;;10.02;4.97;;;;;;;15.86;76.94;99669.25;5012186;28;20026;-62
2021/06/12 02:25:50;;;;;;;12.57;6.68;;;;;;;15.83;77.51;99656.28;4995288;28;20488;-62
2021/06/12 02:28:15;;;;;;;15.85;5.90;;;;;;;15.72;77.74;99656.25;5013284;28;20037;-62
2021/06/12 02:30:44;;;;;;;11.35;5.45;;;;;;;15.73;78.19;99652.44;5011839;28;20034;-62
2021/06/12 02:33:12;;;;;;;12.00;7.00;;;;;;;15.80;77.69;99662.19;5012159;28;20030;-62
2021/06/12 02:35:37;;;;;;;14.75;6.47;;;;;;;15.82;77.34;99666.25;4995572;28;20117;-62
2021/06/12 02:38:03;;;;;;;13.25;6.25;;;;;;;15.78;77.98;99656.25;5013197;28;20092;-62
2021/06/12 02:40:28;;;;;;;16.30;7.35;;;;;;;15.83;78.01;99656.28;5011833;28;20484;-62
2021/06/12 02:42:54;;;;;;;14.23;7.47;;;;;;;15.96;77.52;99655.75;5013267;28;20427;-62
2021/06/12 02:45:19;;;;;;;14.05;6.35;;;;;;;15.93;76.81;99667.09;5015382;28;20032;-62
2021/06/12 02:47:56;;;;;;;13.60;5.28;;;;;;;15.62;77.03;99661.56;4999774;28;20040;-62
2021/06/12 02:50:24;;;;;;;11.90;5.38;;;;;;;15.58;77.75;99671.28;5015738;28;20033;-62
2021/06/12 02:52:50;;;;;;;15.68;7.60;;;;;;;15.55;78.63;99669.13;4999881;28;20350;-61
2021/06/12 02:55:15;;;;;;;13.07;6.65;;;;;;;15.58;78.66;99654.28;5015345;28;20025;-62
2021/06/12 02:57:46;;;;;;;14.02;7.95;;;;;;;15.62;79.14;99649.94;4999658;28;20026;-61
2021/06/12 03:00:13;;;;;;;14.05;7.95;;;;;;;15.74;78.72;99654.06;5016465;28;20046;-61
2021/06/12 03:02:40;;;;;;;16.90;7.85;;;;;;;15.67;78.53;99658.06;5016904;28;20053;-61
2021/06/12 03:05:06;;;;;;;13.60;8.30;;;;;;;15.62;79.04;99661.56;5015109;28;20030;-62
2021/06/12 03:07:32;;;;;;;17.35;8.45;;;;;;;15.68;78.79;99671.31;4999339;28;20026;-62
2021/06/12 03:09:58;;;;;;;16.63;8.77;;;;;;;15.62;79.20;99672.38;4999292;28;20076;-61
2021/06/12 03:12:23;;;;;;;13.43;7.85;;;;;;;15.59;79.47;99666.69;5015194;28;20038;-62
2021/06/12 03:14:49;;;;;;;18.48;8.77;;;;;;;15.60;79.44;99677.25;4999210;28;20037;-61
2021/06/12 03:17:14;;;;;;;17.25;8.30;;;;;;;15.57;79.70;99674.25;4998713;28;20041;-61
2021/06/12 03:19:39;;;;;;;18.52;8.68;;;;;;;15.54;79.84;99670.19;4999011;28;20022;-62
2021/06/12 03:22:05;;;;;;;15.73;8.38;;;;;;;15.58;79.69;99671.28;5014928;28;20034;-61
2021/06/12 03:24:30;;;;;;;13.27;7.25;;;;;;;15.59;78.31;99683.72;4999081;28;20384;-62
2021/06/12 03:27:00;;;;;;;17.08;6.22;;;;;;;15.46;77.85;99678.81;4982236;28;20052;-61
2021/06/12 03:29:27;;;;;;;9.48;6.47;;;;;;;15.17;79.30;99686.47;5015487;28;20057;-62
2021/06/12 03:31:52;;;;;;;13.38;7.05;;;;;;;15.15;80.51;99684.06;5014941;28;20041;-61
2021/06/12 03:34:18;;;;;;;17.27;7.45;;;;;;;15.31;79.94;99693.84;4998779;28;20025;-61
2021/06/12 03:36:43;;;;;;;16.23;7.63;;;;;;;15.50;80.08;99686.13;4998486;28;20476;-61
2021/06/12 03:39:09;;;;;;;13.60;7.80;;;;;;;15.62;78.52;99685.88;4998726;28;20052;-62
2021/06/12 03:41:34;;;;;;;15.85;8.40;;;;;;;15.54;80.08;99687.19;5014621;28;20041;-62
2021/06/12 03:44:00;;;;;;;16.40;8.85;;;;;;;15.64;79.43;99686.44;5015001;28;20021;-64
2021/06/12 03:46:25;;;;;;;18.95;8.63;;;;;;;15.72;79.03;99694.09;5014449;28;20042;-62
2021/06/12 03:48:51;;;;;;;22.65;9.40;;;;;;;15.94;78.47;99701.16;5015999;28;20029;-61
2021/06/12 03:51:17;;;;;;;17.95;9.02;;;;;;;16.06;77.98;99709.84;4998338;28;20499;-61
2021/06/12 03:53:46;;;;;;;17.65;8.32;;;;;;;16.26;77.38;99709.06;5014962;28;20095;-62
2021/06/12 03:56:17;;;;;;;15.47;6.93;;;;;;;16.42;74.79;99711.78;5014193;28;20030;-61
2021/06/12 03:58:44;;;;;;;18.35;6.80;;;;;;;16.63;73.20;99715.34;5015830;28;20615;-62
2021/06/12 04:01:16;;;;;;;15.35;7.03;;;;;;;17.16;71.61;99721.28;5015503;28;20056;-62
2021/06/12 04:03:42;;;;;;;12.73;6.20;;;;;;;17.11;71.35;99707.75;5015233;28;20030;-62
2021/06/12 04:06:08;;;;;;;19.10;8.15;;;;;;;16.99;73.27;99716.94;5015420;28;20523;-62
2021/06/12 04:08:34;;;;;;;13.95;7.82;;;;;;;17.39;72.45;99717.94;5014641;28;20357;-62
2021/06/12 04:10:59;;;;;;;15.27;7.22;;;;;;;17.45;71.73;99725.00;5015247;28;20041;-62
2021/06/12 04:13:26;;;;;;;12.43;7.28;;;;;;;17.62;70.63;99727.38;5015751;28;20030;-62
2021/06/12 04:15:51;;;;;;;16.15;7.28;;;;;;;17.80;69.30;99720.56;5015173;28;20038;-62
2021/06/12 04:18:17;;;;;;;16.85;7.57;;;;;;;17.78;69.74;99717.28;5015749;28;20037;-62
2021/06/12 04:20:42;;;;;;;20.60;8.82;;;;;;;17.88;70.46;99711.84;5015207;28;20092;-62
2021/06/12 04:23:08;;;;;;;19.13;6.55;;;;;;;18.03;68.31;99724.50;5015538;28;20025;-62
2021/06/12 04:25:33;;;;;;;11.50;6.55;;;;;;;17.66;68.98;99720.31;5015015;28;20026;-62
2021/06/12 04:27:59;;;;;;;15.80;5.65;;;;;;;17.58;69.48;99723.59;5015291;28;20072;-62
2021/06/12 04:30:24;;;;;;;9.68;5.70;;;;;;;18.08;66.76;99726.38;5014846;28;20030;-62
2021/06/12 04:32:50;;;;;;;15.63;5.97;;;;;;;17.99;68.90;99725.34;5015261;28;20033;-62
2021/06/12 04:35:15;;;;;;;17.02;7.35;;;;;;;17.24;71.49;99728.81;5014905;28;20030;-62
2021/06/12 04:37:41;;;;;;;13.35;7.40;;;;;;;17.42;72.29;99722.84;5014356;28;20037;-62
2021/06/12 04:40:08;;;;;;;13.77;7.80;;;;;;;17.48;71.15;99712.00;5014844;28;20037;-62
2021/06/12 04:42:34;;;;;;;13.07;7.00;;;;;;;17.32;72.23;99714.72;5015037;28;20555;-62
2021/06/12 04:44:59;;;;;;;13.68;8.43;;;;;;;16.90;75.10;99709.66;5013621;28;20022;-62
2021/06/12 04:47:25;;;;;;;15.88;8.50;;;;;;;16.76;75.53;99703.97;5013239;28;20034;-62
2021/06/12 04:49:50;;;;;;;17.70;9.73;;;;;;;16.57;76.49;99704.50;5015058;28;20029;-61
2021/06/12 04:52:15;;;;;;;18.83;9.77;;;;;;;16.77;75.92;99708.28;5014595;28;20034;-62
2021/06/12 04:54:41;;;;;;;19.85;8.15;;;;;;;16.72;75.64;99722.63;5014866;28;20084;-61
2021/06/12 04:57:06;;;;;;;14.75;7.88;;;;;;;16.89;74.28;99727.78;5013143;28;20088;-62
2021/06/12 04:59:32;;;;;;;14.65;7.80;;;;;;;16.99;74.22;99722.38;5014621;28;20099;-62
2021/06/12 05:01:57;;;;;;;17.10;8.48;;;;;;;16.86;76.06;99725.63;5013030;28;20555;-61
2021/06/12 05:04:23;;;;;;;15.77;7.82;;;;;;;17.20;74.99;99731.28;5015200;28;20437;-62
2021/06/12 05:06:48;;;;;;;16.50;8.57;;;;;;;17.39;74.31;99723.38;5013586;28;20038;-61
2021/06/12 05:09:14;;;;;;;16.88;8.68;;;;;;;18.19;70.94;99725.22;5013510;28;20021;-61
2021/06/12 05:11:39;;;;;;;16.13;8.63;;;;;;;18.36;70.17;99718.63;5014201;28;20042;-62
2021/06/12 05:14:05;;;;;;;15.02;8.40;;;;;;;18.45;69.86;99725.06;5014364;28;20022;-62
2021/06/12 05:16:33;;;;;;;17.65;8.60;;;;;;;18.49;69.63;99723.41;5012900;28;20042;-62
2021/06/12 05:18:58;;;;;;;13.55;8.23;;;;;;;18.50;69.89;99727.75;5014551;28;20080;-62
2021/06/12 05:21:24;;;;;;;19.17;8.27;;;;;;;18.70;69.82;99727.59;5014143;28;20045;-61
2021/06/12 05:23:49;;;;;;;16.00;8.55;;;;;;;18.26;70.95;99735.75;5014466;28;20096;-62
2021/06/12 05:26:15;;;;;;;18.85;8.32;;;;;;;18.10;72.18;99733.16;5013912;28;20038;-62
2021/06/12 05:28:40;;;;;;;15.70;8.48;;;;;;;18.32;71.40;99726.50;5014161;28;20037;-62
2021/06/12 05:31:06;;;;;;;14.05;8.18;;;;;;;18.62;70.58;99724.66;5013949;28;20484;-62
2021/06/12 05:33:33;;;;;;;14.93;8.45;;;;;;;19.13;69.16;99735.13;4996700;28;20476;-62
2021/06/12 05:35:58;;;;;;;11.70;7.72;;;;;;;19.54;67.64;99740.91;5012462;28;20111;-62
2021/06/12 05:38:25;;;;;;;19.05;8.52;;;;;;;19.35;67.77;99731.91;5014193;28;20321;-62
2021/06/12 05:40:51;;;;;;;11.48;7.47;;;;;;;19.20;68.76;99732.06;5013595;28;20396;-62
2021/06/12 05:43:16;;;;;;;14.52;7.53;;;;;;;18.81;69.95;99735.69;4996331;28;20017;-62
2021/06/12 05:45:43;;;;;;;13.80;8.20;;;;;;;18.50;71.78;99744.03;5013649;28;20054;-62
2021/06/12 05:48:09;;;;;;;14.40;8.73;;;;;;;18.27;73.70;99746.34;5014168;28;20088;-62
2021/06/12 05:50:34;;;;;;;13.20;8.48;;;;;;;17.94;74.48;99738.94;5013474;28;20476;-62
2021/06/12 05:53:00;;;;;;;14.98;9.10;;;;;;;17.76;75.36;99751.97;5013959;28;20037;-61
2021/06/12 05:55:25;;;;;;;20.77;9.10;;;;;;;17.65;75.88;99739.56;5013352;28;20033;-62
2021/06/12 05:57:51;;;;;;;15.70;9.45;;;;;;;17.37;77.53;99739.13;5013676;28;20545;-62
2021/06/12 06:00:17;;;;;;;15.18;8.45;;;;;;;17.20;78.32;99757.56;5013221;28;20125;-61
2021/06/12 06:02:42;;;;;;;16.95;9.00;;;;;;;17.10;78.47;99750.25;5013802;28;20409;-61
2021/06/12 06:05:08;;;;;;;12.52;8.90;;;;;;;17.25;78.31;99749.44;5013095;28;20064;-61
2021/06/12 06:07:33;;;;;;;13.98;8.80;;;;;;;17.34;78.47;99745.06;5013873;28;20026;-62
2021/06/12 06:09:59;;;;;;;12.52;8.82;;;;;;;17.96;76.04;99739.47;5012342;28;20029;-61
2021/06/12 06:12:24;;;;;;;13.82;8.77;;;;;;;19.75;69.12;99724.41;5012585;28;20057;-62
2021/06/12 06:14:50;;;;;;;12.60;8.20;;;;;;;19.90;67.62;99716.03;5013482;28;20057;-62
2021/06/12 06:17:15;;;;;;;15.32;9.00;;;;;;;20.29;66.00;99716.84;5013038;28;20038;-62
2021/06/12 06:19:40;;;;;;;14.77;8.23;;;;;;;22.12;59.84;99707.25;5012693;28;20022;-62
2021/06/12 06:22:06;;;;;;;11.77;7.93;;;;;;;22.72;58.01;99708.84;5011638;28;20530;-62
2021/06/12 06:24:31;;;;;;;12.52;7.65;;;;;;;24.85;51.32;99693.09;5013411;28;20026;-62
2021/06/12 06:26:57;;;;;;;15.98;8.00;;;;;;;23.45;54.34;99695.72;5012747;28;20400;-62
2021/06/12 06:29:22;;;;;;;10.30;8.00;;;;;;;23.03;56.56;99705.34;5013501;28;20022;-62
2021/06/12 06:31:48;;;;;;;13.80;7.90;;;;;;;23.47;54.89;99707.16;5011537;28;20038;-63
2021/06/12 06:34:13;;;;;;;11.15;7.57;;;;;;;24.54;51.40;99711.38;5013236;28;20030;-63
2021/06/12 06:36:39;;;;;;;8.40;7.25;;;;;;;23.89;53.33;99715.03;5012759;28;20044;-62
2021/06/12 06:39:04;;;;;;;13.32;6.97;;;;;;;23.99;54.06;99724.84;5013277;28;20049;-62
2021/06/12 06:41:30;;;;;;;9.25;6.50;;;;;;;25.87;48.72;99727.91;5011357;28;20209;-62
2021/06/12 06:43:56;;;;;;;9.10;6.10;;;;;;;26.68;46.27;99717.59;5013379;28;20120;-62
2021/06/12 06:46:21;;;;;;;8.77;6.07;;;;;;;27.69;43.86;99721.78;5011298;28;20030;-62
2021/06/12 06:48:47;;;;;;;10.95;5.80;;;;;;;27.77;44.11;99722.81;5013277;28;20321;-62
2021/06/12 06:51:12;;;;;;;11.32;5.85;;;;;;;27.58;43.90;99723.38;5012721;28;20046;-62
2021/06/12 06:53:37;;;;;;;11.30;6.10;;;;;;;27.61;43.94;99720.75;5013120;28;20026;-63
2021/06/12 06:56:04;;;;;;;9.77;5.80;;;;;;;25.82;48.24;99720.63;5012562;28;20034;-63
2021/06/12 06:58:30;;;;;;;10.68;6.00;;;;;;;26.50;46.30;99724.38;5012799;28;20235;-63
2021/06/12 07:00:55;;;;;;;13.00;7.20;;;;;;;25.61;49.13;99720.59;5012692;28;20034;-62
2021/06/12 07:03:21;;;;;;;10.27;7.25;;;;;;;23.81;52.80;99711.16;5013182;28;20400;-62
2021/06/12 07:05:46;;;;;;;11.63;7.60;;;;;;;23.84;53.42;99718.72;5012529;28;20109;-62
2021/06/12 07:08:12;;;;;;;10.80;7.25;;;;;;;23.70;53.75;99723.50;5012975;28;20030;-61
2021/06/12 07:10:37;;;;;;;10.07;7.03;;;;;;;23.61;54.38;99722.66;5012589;28;20030;-62
2021/06/12 07:13:04;;;;;;;9.80;6.97;;;;;;;24.38;51.80;99728.59;5012894;28;20088;-61
2021/06/12 07:15:29;;;;;;;10.65;6.60;;;;;;;24.31;52.12;99732.63;5011537;28;20179;-62
2021/06/12 07:17:54;;;;;;;6.85;5.70;;;;;;;24.36;50.66;99737.13;5013031;28;20026;-61
2021/06/12 07:20:20;;;;;;;7.63;5.47;;;;;;;24.63;50.72;99729.75;5011324;28;20484;-62
2021/06/12 07:22:45;;;;;;;6.10;4.93;;;;;;;26.35;46.19;99734.81;5012878;28;20372;-62
2021/06/12 07:25:14;;;;;;;7.78;5.13;;;;;;;28.14;41.83;99740.91;5012306;28;20018;-62
2021/06/12 07:27:39;;;;;;;9.07;4.90;;;;;;;28.86;39.97;99737.47;5012703;28;20546;-62
2021/06/12 07:30:05;;;;;;;11.77;5.18;;;;;;;29.56;38.28;99733.34;5013142;28;20026;-63
2021/06/12 07:32:32;;;;;;;5.57;4.32;;;;;;;27.67;42.79;99738.63;5016275;28;20559;-62
2021/06/12 07:34:58;;;;;;;7.10;4.28;;;;;;;26.48;45.01;99735.69;5015270;28;20022;-62
2021/06/12 07:37:23;;;;;;;9.05;4.70;;;;;;;24.16;50.32;99726.81;5015848;28;20088;-62
2021/06/12 07:39:49;;;;;;;7.20;4.50;;;;;;;24.36;50.09;99736.31;5016152;28;20088;-61
2021/06/12 07:42:14;;;;;;;6.28;4.32;;;;;;;26.14;46.51;99734.84;5015805;28;20476;-62
2021/06/12 07:44:39;;;;;;;6.40;4.10;;;;;;;28.26;41.20;99731.81;5016140;28;20488;-62
2021/06/12 07:47:05;;;;;;;6.22;4.32;;;;;;;28.27;42.23;99729.84;5015601;28;20081;-62
2021/06/12 07:49:30;;;;;;;8.63;4.40;;;;;;;28.20;42.21;99733.19;5016140;28;20392;-62
2021/06/12 07:51:56;;;;;;;9.18;4.47;;;;;;;27.75;42.54;99734.94;5015532;28;20034;-62
2021/06/12 07:54:21;;;;;;;6.30;4.15;;;;;;;28.32;40.89;99740.63;5015979;28;20029;-62
2021/06/12 07:56:47;;;;;;;9.20;4.40;;;;;;;28.77;39.84;99732.09;5014241;28;20048;-62
2021/06/12 07:59:12;;;;;;;7.57;4.07;;;;;;;28.69;39.93;99735.00;5015602;28;20108;-62
2021/06/12 08:01:38;;;;;;;5.85;3.75;;;;;;;28.35;41.11;99742.69;5015422;28;20048;-62
2021/06/12 08:04:03;;;;;;;6.63;3.60;;;;;;;28.21;41.73;99742.25;5015762;28;20427;-62
2021/06/12 08:06:29;;;;;;;7.18;3.83;;;;;;;27.18;44.05;99741.34;5015185;28;20042;-62
2021/06/12 08:08:54;;;;;;;7.50;4.15;;;;;;;26.63;45.29;99737.03;5015184;28;20018;-62
2021/06/12 08:11:20;;;;;;;6.30;4.25;;;;;;;29.74;38.45;99745.63;5015070;28;20030;-62
2021/06/12 08:13:45;;;;;;;4.68;3.80;;;;;;;30.97;35.61;99744.28;5014620;28;20076;-62
2021/06/12 08:16:11;;;;;;;9.45;4.35;;;;;;;29.61;37.87;99744.13;5015318;28;20437;-62
2021/06/12 08:18:36;;;;;;;8.98;4.35;;;;;;;30.28;36.62;99742.13;5015566;28;20457;-62
2021/06/12 08:21:02;;;;;;;13.15;4.03;;;;;;;30.55;35.83;99739.50;5015200;28;20048;-62
2021/06/12 08:23:27;;;;;;;7.50;3.60;;;;;;;30.25;35.88;99736.50;5014464;28;20026;-62
2021/06/12 08:25:52;;;;;;;9.10;2.95;;;;;;;31.09;33.41;99740.56;5013568;28;20038;-62
2021/06/12 08:28:21;;;;;;;6.97;2.85;;;;;;;30.69;33.40;99733.47;5015254;28;20034;-62
2021/06/12 08:30:46;;;;;;;8.35;2.75;;;;;;;31.00;33.10;99726.94;5015010;28;20061;-62
2021/06/12 08:33:12;;;;;;;6.97;2.55;;;;;;;29.44;33.54;99712.94;5015458;28;20018;-62
2021/06/12 08:35:38;;;;;;;5.20;2.45;;;;;;;30.08;32.28;99726.66;5013437;28;20396;-62
2021/06/12 08:38:03;;;;;;;5.45;2.25;;;;;;;31.64;29.99;99732.78;5015228;28;20064;-62
2021/06/12 08:40:29;;;;;;;2.97;2.15;;;;;;;32.09;28.33;99741.38;5013404;28;20033;-62
2021/06/12 08:42:55;;;;;;;3.40;2.30;;;;;;;31.54;28.85;99731.44;5014092;28;20026;-62
2021/06/12 08:45:25;;;;;;;5.90;2.20;;;;;;;32.51;27.25;99721.75;5013242;28;20096;-62
2021/06/12 08:47:51;;;;;;;6.55;2.42;;;;;;;32.21;28.58;99727.28;5014027;28;20440;-62
2021/06/12 08:50:18;;;;;;;3.95;2.10;;;;;;;31.73;29.16;99729.78;5013401;28;20049;-62
2021/06/12 08:52:43;;;;;;;4.90;2.38;;;;;;;29.60;32.63;99729.47;5014863;28;20026;-62
2021/06/12 08:55:09;;;;;;;4.78;2.17;;;;;;;28.59;34.78;99726.09;5014120;28;20476;-62
2021/06/12 08:57:36;;;;;;;5.47;2.40;;;;;;;29.40;34.15;99741.63;5013480;28;20022;-62
2021/06/12 09:00:01;;;;;;;5.20;2.60;;;;;;;27.02;36.91;99743.94;5014048;28;20049;-61
2021/06/12 09:02:26;;;;;;;4.25;2.35;;;;;;;28.91;34.41;99747.44;5014751;28;20029;-62
2021/06/12 09:04:53;;;;;;;4.88;2.70;;;;;;;29.51;32.21;99742.69;5014529;28;20405;-61
2021/06/12 09:07:28;;;;;;;6.40;2.40;;;;;;;28.70;33.69;99742.13;5014053;28;20463;-61
2021/06/12 09:09:57;;;;;;;3.95;2.10;;;;;;;30.63;30.02;99746.78;5014502;28;20117;-62
2021/06/12 09:12:43;;;;;;;5.45;2.47;;;;;;;30.81;29.90;99746.34;5013824;28;20057;-62
2021/06/12 09:15:10;;;;;;;3.53;2.25;;;;;;;30.14;30.52;99733.50;5013041;28;20040;-62
2021/06/12 09:17:44;;;;;;;6.40;2.38;;;;;;;29.52;30.81;99729.69;5013280;28;20033;-62
2021/06/12 09:20:10;;;;;;;5.07;2.05;;;;;;;30.38;30.19;99751.81;5014124;28;20029;-62
2021/06/12 09:22:36;;;;;;;5.43;2.30;;;;;;;31.27;28.63;99746.41;5014159;28;20026;-61
2021/06/12 09:25:01;;;;;;;5.97;2.40;;;;;;;29.68;31.21;99738.78;4979850;28;20041;-62
2021/06/12 09:27:29;;;;;;;6.68;2.30;;;;;;;27.88;35.22;99741.31;5014189;28;20385;-62
2021/06/12 09:29:54;;;;;;;8.77;2.00;;;;;;;26.76;37.11;99757.13;5012816;28;20053;-62
2021/06/12 09:32:28;;;;;;;5.85;1.83;;;;;;;27.09;36.30;99754.38;5013724;28;20064;-61
2021/06/12 09:35:05;;;;;;;5.38;2.20;;;;;;;27.61;36.00;99742.78;5012682;28;20369;-62
2021/06/12 09:37:31;;;;;;;5.55;1.80;;;;;;;27.83;34.62;99743.47;5012812;28;20038;-62
2021/06/12 09:40:06;;;;;;;10.98;2.30;;;;;;;28.69;33.47;99757.06;5013604;28;20030;-62
2021/06/12 09:42:51;;;;;;;9.40;2.13;;;;;;;30.09;32.33;99761.44;5013643;28;20611;-61
2021/06/12 09:45:30;;;;;;;13.15;2.30;;;;;;;27.95;36.25;99760.00;5012139;28;20040;-62
2021/06/12 09:48:12;;;;;;;14.93;2.13;;;;;;;28.47;35.25;99761.97;5012874;28;20037;-61
2021/06/12 09:50:38;;;;;;;4.35;2.00;;;;;;;27.31;37.62;99755.94;5013463;28;20109;-61
2021/06/12 09:53:12;;;;;;;6.43;2.90;;;;;;;27.96;35.32;99764.38;5013367;28;20025;-61
2021/06/12 09:55:37;;;;;;;19.08;2.70;;;;;;;27.68;35.53;99780.72;5012128;28;20058;-62
2021/06/12 09:58:03;;;;;;;4.13;1.67;;;;;;;27.95;33.94;99766.28;5013606;28;20099;-62
2021/06/12 10:00:44;;;;;;;5.25;1.92;;;;;;;27.40;36.02;99769.59;5013169;28;20439;-62
2021/06/12 10:03:20;;;;;;;4.22;2.00;;;;;;;26.34;37.22;99768.16;5013582;28;20383;-61
2021/06/12 10:05:46;;;;;;;2.90;1.65;;;;;;;26.03;36.77;99774.81;5012599;28;20557;-62
2021/06/12 10:08:14;;;;;;;4.40;2.10;;;;;;;26.74;34.85;99775.94;5013762;28;20030;-62
2021/06/12 10:10:42;;;;;;;4.90;2.90;;;;;;;27.61;33.50;99775.81;5013123;28;20040;-62
2021/06/12 10:13:07;;;;;;;7.93;4.07;;;;;;;27.60;35.93;99778.91;4992855;28;20220;-61
2021/06/12 10:15:33;;;;;;;5.72;2.50;;;;;;;27.02;36.00;99765.94;5013046;28;20030;-61
2021/06/12 10:17:58;;;;;;;11.60;6.60;;;;;;;28.01;34.81;99764.13;4979648;28;20033;-62
2021/06/12 10:20:24;;;;;;;10.43;8.00;;;;;;;27.62;35.69;99765.59;5011646;28;20384;-62
2021/06/12 10:22:51;;;;;;;5.75;2.65;;;;;;;26.42;38.02;99765.31;5013140;28;20464;-62
2021/06/12 10:25:17;;;;;;;4.72;2.50;;;;;;;25.80;39.12;99771.50;5011821;28;20018;-62
2021/06/12 10:27:43;;;;;;;11.75;2.40;;;;;;;25.97;39.35;99776.16;5013246;28;20565;-62
2021/06/12 10:30:10;;;;;;;5.88;2.80;;;;;;;25.35;41.64;99783.00;5012928;28;20030;-62
2021/06/12 10:32:35;;;;;;;13.43;5.43;;;;;;;23.78;49.27;99777.47;5013276;28;20044;-62
2021/06/12 10:35:03;;;;;;;10.02;5.30;;;;;;;23.08;52.45;99778.22;5011770;28;20101;-62
2021/06/12 10:37:29;;;;;;;11.50;5.78;;;;;;;22.49;54.27;99781.81;5012057;28;20029;-62
2021/06/12 10:40:03;;;;;;;15.88;7.15;;;;;;;22.42;55.11;99788.81;5012481;28;20026;-62
2021/06/12 10:42:28;;;;;;;14.50;6.93;;;;;;;22.10;56.45;99794.09;4995845;28;20543;-62
2021/06/12 10:44:54;;;;;;;13.90;7.65;;;;;;;21.95;57.30;99795.22;5011837;28;20033;-62
2021/06/12 10:47:42;;;;;;;13.27;7.65;;;;;;;22.10;57.26;99785.09;5011530;28;20030;-61
2021/06/12 10:50:26;;;;;;;18.73;8.73;;;;;;;22.09;57.41;99791.66;5013034;28;20033;-62
2021/06/12 10:53:12;;;;;;;15.23;8.55;;;;;;;22.05;57.27;99791.47;5013034;28;20116;-62
2021/06/12 10:55:44;;;;;;;14.20;8.48;;;;;;;21.76;58.51;99802.69;4997497;28;20377;-62
2021/06/12 10:58:35;;;;;;;11.63;8.68;;;;;;;21.94;58.25;99792.78;5013175;28;20086;-62
2021/06/12 11:01:12;;;;;;;14.38;8.38;;;;;;;22.22;57.67;99792.81;5007599;28;20038;-62
2021/06/12 11:03:48;;;;;;;11.63;8.30;;;;;;;22.17;57.23;99793.69;5012971;28;20132;-62
2021/06/12 11:06:41;;;;;;;19.80;8.55;;;;;;;21.75;58.20;99799.16;5014910;28;20045;-62
2021/06/12 11:09:19;;;;;;;16.20;8.20;;;;;;;22.42;56.70;99808.72;5017058;28;20088;-62
2021/06/12 11:12:17;;;;;;;12.60;7.60;;;;;;;22.20;57.08;99792.28;5016524;28;20457;-63
2021/06/12 11:14:58;;;;;;;9.95;7.28;;;;;;;22.38;56.13;99796.78;5011280;28;20403;-62
2021/06/12 11:17:23;;;;;;;13.23;7.47;;;;;;;22.31;56.38;99791.75;5016438;28;20038;-62
2021/06/12 11:19:55;;;;;;;12.90;7.25;;;;;;;22.11;56.45;99787.50;5016860;28;20076;-62
2021/06/12 11:22:28;;;;;;;18.58;7.35;;;;;;;22.01;56.40;99785.00;5016133;28;20038;-62
2021/06/12 11:24:56;;;;;;;12.63;6.78;;;;;;;22.51;54.94;99790.47;5016704;28;20041;-62
2021/06/12 11:27:28;;;;;;;19.98;7.13;;;;;;;22.50;55.58;99793.53;5016290;28;20064;-62
2021/06/12 11:30:23;;;;;;;9.82;7.00;;;;;;;22.09;56.04;99794.38;5016441;28;20029;-62